sensor_id;sensor_type;location;lat;lon;timestamp;pressure;altitude;pressure_sealevel;temperature;humidity
36190;BME280;22232;50.914;13.858;2023-12-14T00:00:06;96574.34;;;5.03;100.00
36190;BME280;22232;50.914;13.858;2023-12-14T00:02:35;96577.78;;;5.04;100.00
36190;BME280;22232;50.914;13.858;2023-12-14T00:05:04;96579.19;;;5.06;100.00
36190;BME280;22232;50.914;13.858;2023-12-14T00:07:32;96589.53;;;5.08;100.00
36190;BME280;22232;50.914;13.858;2023-12-14T00:10:00;96582.19;;;5.10;100.00
36190;BME280;22232;50.914;13.858;2023-12-14T00:12:28;96581.97;;;5.12;100.00
36190;BME280;22232;50.914;13.858;2023-12-14T00:14:56;96591.25;;;5.14;100.00
36190;BME280;22232;50.914;13.858;2023-12-14T00:17:24;96594.94;;;5.13;100.00
36190;BME280;22232;50.914;13.858;2023-12-14T00:19:52;96595.28;;;5.17;100.00
36190;BME280;22232;50.914;13.858;2023-12-14T00:22:20;96595.09;;;5.18;100.00
36190;BME280;22232;50.914;13.858;2023-12-14T00:24:47;96596.69;;;5.19;100.00
36190;BME280;22232;50.914;13.858;2023-12-14T00:27:15;96592.19;;;5.20;100.00
36190;BME280;22232;50.914;13.858;2023-12-14T00:29:43;96598.28;;;5.20;100.00
36190;BME280;22232;50.914;13.858;2023-12-14T00:32:11;96612.09;;;5.22;100.00
36190;BME280;22232;50.914;13.858;2023-12-14T00:34:39;96612.53;;;5.19;100.00
36190;BME280;22232;50.914;13.858;2023-12-14T00:37:08;96608.84;;;5.20;100.00
36190;BME280;22232;50.914;13.858;2023-12-14T00:39:36;96614.53;;;5.24;100.00
36190;BME280;22232;50.914;13.858;2023-12-14T00:42:04;96617.72;;;5.26;100.00
36190;BME280;22232;50.914;13.858;2023-12-14T00:44:32;96618.31;;;5.28;100.00
36190;BME280;22232;50.914;13.858;2023-12-14T00:47:01;96620.16;;;5.27;100.00
36190;BME280;22232;50.914;13.858;2023-12-14T00:49:30;96622.81;;;5.27;100.00
36190;BME280;22232;50.914;13.858;2023-12-14T00:51:58;96627.84;;;5.29;100.00
36190;BME280;22232;50.914;13.858;2023-12-14T00:54:26;96634.78;;;5.30;100.00
36190;BME280;22232;50.914;13.858;2023-12-14T00:56:54;96635.56;;;5.31;100.00
36190;BME280;22232;50.914;13.858;2023-12-14T00:59:22;96640.06;;;5.30;100.00
36190;BME280;22232;50.914;13.858;2023-12-14T01:01:50;96645.56;;;5.28;100.00
36190;BME280;22232;50.914;13.858;2023-12-14T01:04:17;96649.84;;;5.29;100.00
36190;BME280;22232;50.914;13.858;2023-12-14T01:06:45;96656.94;;;5.29;100.00
36190;BME280;22232;50.914;13.858;2023-12-14T01:09:13;96656.38;;;5.27;100.00
36190;BME280;22232;50.914;13.858;2023-12-14T01:11:41;96648.44;;;5.27;100.00
36190;BME280;22232;50.914;13.858;2023-12-14T01:14:09;96653.94;;;5.25;100.00
36190;BME280;22232;50.914;13.858;2023-12-14T01:16:37;96653.94;;;5.25;100.00
36190;BME280;22232;50.914;13.858;2023-12-14T01:19:06;96653.22;;;5.18;100.00
36190;BME280;22232;50.914;13.858;2023-12-14T01:21:34;96666.91;;;5.15;100.00
36190;BME280;22232;50.914;13.858;2023-12-14T01:24:02;96667.09;;;5.14;100.00
36190;BME280;22232;50.914;13.858;2023-12-14T01:26:30;96669.19;;;5.12;100.00
36190;BME280;22232;50.914;13.858;2023-12-14T01:28:58;96664.56;;;5.07;100.00
36190;BME280;22232;50.914;13.858;2023-12-14T01:31:29;96662.94;;;5.06;100.00
36190;BME280;22232;50.914;13.858;2023-12-14T01:33:56;96670.06;;;5.05;100.00
36190;BME280;22232;50.914;13.858;2023-12-14T01:36:26;96668.69;;;5.03;100.00
36190;BME280;22232;50.914;13.858;2023-12-14T01:38:54;96664.41;;;5.02;100.00
36190;BME280;22232;50.914;13.858;2023-12-14T01:41:21;96679.25;;;5.03;100.00
36190;BME280;22232;50.914;13.858;2023-12-14T01:43:49;96674.97;;;5.02;100.00
36190;BME280;22232;50.914;13.858;2023-12-14T01:46:17;96676.03;;;5.01;100.00
36190;BME280;22232;50.914;13.858;2023-12-14T01:48:45;96682.69;;;5.03;100.00
36190;BME280;22232;50.914;13.858;2023-12-14T01:51:13;96673.72;;;5.04;100.00
36190;BME280;22232;50.914;13.858;2023-12-14T01:53:41;96678.81;;;5.06;100.00
36190;BME280;22232;50.914;13.858;2023-12-14T01:56:09;96684.00;;;5.13;100.00
36190;BME280;22232;50.914;13.858;2023-12-14T01:58:37;96688.03;;;5.15;100.00
36190;BME280;22232;50.914;13.858;2023-12-14T02:01:18;96696.78;;;5.16;100.00
36190;BME280;22232;50.914;13.858;2023-12-14T02:03:51;96689.06;;;5.14;100.00
36190;BME280;22232;50.914;13.858;2023-12-14T02:06:20;96695.16;;;5.15;100.00
36190;BME280;22232;50.914;13.858;2023-12-14T02:08:48;96702.34;;;5.07;100.00
36190;BME280;22232;50.914;13.858;2023-12-14T02:11:16;96707.53;;;5.02;100.00
36190;BME280;22232;50.914;13.858;2023-12-14T02:13:44;96706.56;;;4.97;100.00
36190;BME280;22232;50.914;13.858;2023-12-14T02:16:12;96712.41;;;4.99;100.00
36190;BME280;22232;50.914;13.858;2023-12-14T02:18:39;96711.16;;;5.01;100.00
36190;BME280;22232;50.914;13.858;2023-12-14T02:21:07;96711.97;;;5.02;100.00
36190;BME280;22232;50.914;13.858;2023-12-14T02:23:35;96717.84;;;5.04;100.00
36190;BME280;22232;50.914;13.858;2023-12-14T02:26:03;96722.34;;;5.03;100.00
36190;BME280;22232;50.914;13.858;2023-12-14T02:28:31;96720.50;;;5.04;100.00
36190;BME280;22232;50.914;13.858;2023-12-14T02:30:59;96719.25;;;5.06;100.00
36190;BME280;22232;50.914;13.858;2023-12-14T02:33:27;96720.50;;;5.04;100.00
36190;BME280;22232;50.914;13.858;2023-12-14T02:35:55;96721.31;;;5.04;100.00
36190;BME280;22232;50.914;13.858;2023-12-14T02:38:23;96729.03;;;5.06;100.00
36190;BME280;22232;50.914;13.858;2023-12-14T02:40:51;96736.34;;;5.04;100.00
36190;BME280;22232;50.914;13.858;2023-12-14T02:43:20;96737.59;;;5.01;100.00
36190;BME280;22232;50.914;13.858;2023-12-14T02:45:48;96735.75;;;5.02;100.00
36190;BME280;22232;50.914;13.858;2023-12-14T02:48:16;96734.97;;;5.01;100.00
36190;BME280;22232;50.914;13.858;2023-12-14T02:50:44;96731.75;;;4.99;100.00
36190;BME280;22232;50.914;13.858;2023-12-14T02:53:12;96743.56;;;4.97;100.00
36190;BME280;22232;50.914;13.858;2023-12-14T02:55:40;96737.84;;;5.00;100.00
36190;BME280;22232;50.914;13.858;2023-12-14T02:58:08;96745.97;;;4.98;100.00
36190;BME280;22232;50.914;13.858;2023-12-14T03:00:36;96738.03;;;4.98;100.00
36190;BME280;22232;50.914;13.858;2023-12-14T03:03:03;96732.56;;;5.00;100.00
36190;BME280;22232;50.914;13.858;2023-12-14T03:05:31;96739.09;;;4.97;100.00
36190;BME280;22232;50.914;13.858;2023-12-14T03:07:59;96750.28;;;4.93;100.00
36190;BME280;22232;50.914;13.858;2023-12-14T03:10:27;96743.41;;;4.92;100.00
36190;BME280;22232;50.914;13.858;2023-12-14T03:12:55;96758.03;;;4.94;100.00
36190;BME280;22232;50.914;13.858;2023-12-14T03:15:23;96763.50;;;4.93;100.00
36190;BME280;22232;50.914;13.858;2023-12-14T03:17:51;96765.22;;;4.87;100.00
36190;BME280;22232;50.914;13.858;2023-12-14T03:20:20;96767.25;;;4.85;100.00
36190;BME280;22232;50.914;13.858;2023-12-14T03:22:48;96772.38;;;4.80;100.00
36190;BME280;22232;50.914;13.858;2023-12-14T03:25:16;96766.91;;;4.81;100.00
36190;BME280;22232;50.914;13.858;2023-12-14T03:27:47;96773.19;;;4.80;100.00
36190;BME280;22232;50.914;13.858;2023-12-14T03:30:15;96782.16;;;4.79;100.00
36190;BME280;22232;50.914;13.858;2023-12-14T03:32:43;96783.38;;;4.77;100.00
36190;BME280;22232;50.914;13.858;2023-12-14T03:35:11;96784.19;;;4.77;100.00
36190;BME280;22232;50.914;13.858;2023-12-14T03:37:39;96783.63;;;4.75;100.00
36190;BME280;22232;50.914;13.858;2023-12-14T03:40:07;96789.47;;;4.77;100.00
36190;BME280;22232;50.914;13.858;2023-12-14T03:42:35;96787.66;;;4.78;100.00
36190;BME280;22232;50.914;13.858;2023-12-14T03:45:04;96793.97;;;4.77;100.00
36190;BME280;22232;50.914;13.858;2023-12-14T03:47:32;96795.19;;;4.74;100.00
36190;BME280;22232;50.914;13.858;2023-12-14T03:50:00;96803.13;;;4.74;100.00
36190;BME280;22232;50.914;13.858;2023-12-14T03:52:28;96804.16;;;4.73;100.00
36190;BME280;22232;50.914;13.858;2023-12-14T03:54:59;96806.81;;;4.73;100.00
36190;BME280;22232;50.914;13.858;2023-12-14T03:57:27;96813.13;;;4.72;100.00
36190;BME280;22232;50.914;13.858;2023-12-14T03:59:55;96820.00;;;4.73;100.00
36190;BME280;22232;50.914;13.858;2023-12-14T04:02:23;96828.97;;;4.72;100.00
36190;BME280;22232;50.914;13.858;2023-12-14T04:04:51;96832.63;;;4.71;100.00
36190;BME280;22232;50.914;13.858;2023-12-14T04:07:18;96837.47;;;4.74;100.00
36190;BME280;22232;50.914;13.858;2023-12-14T04:09:47;96840.72;;;4.76;100.00
36190;BME280;22232;50.914;13.858;2023-12-14T04:12:16;96833.38;;;4.78;100.00
36190;BME280;22232;50.914;13.858;2023-12-14T04:14:45;96836.03;;;4.78;100.00
36190;BME280;22232;50.914;13.858;2023-12-14T04:17:13;96843.94;;;4.78;100.00
36190;BME280;22232;50.914;13.858;2023-12-14T04:19:42;96836.03;;;4.78;100.00
36190;BME280;22232;50.914;13.858;2023-12-14T04:22:09;96843.34;;;4.76;100.00
36190;BME280;22232;50.914;13.858;2023-12-14T04:24:38;96852.31;;;4.75;100.00
36190;BME280;22232;50.914;13.858;2023-12-14T04:27:05;96860.22;;;4.75;100.00
36190;BME280;22232;50.914;13.858;2023-12-14T04:29:33;96854.50;;;4.78;100.00
36190;BME280;22232;50.914;13.858;2023-12-14T04:32:01;96863.00;;;4.80;100.00
36190;BME280;22232;50.914;13.858;2023-12-14T04:34:30;96866.50;;;4.81;100.00
36190;BME280;22232;50.914;13.858;2023-12-14T04:36:58;96861.19;;;4.81;100.00
36190;BME280;22232;50.914;13.858;2023-12-14T04:39:26;96868.91;;;4.82;100.00
36190;BME280;22232;50.914;13.858;2023-12-14T04:41:54;96867.84;;;4.83;100.00
36190;BME280;22232;50.914;13.858;2023-12-14T04:44:22;96881.91;;;4.84;100.00
36190;BME280;22232;50.914;13.858;2023-12-14T04:46:50;96886.16;;;4.85;100.00
36190;BME280;22232;50.914;13.858;2023-12-14T04:49:18;96887.75;;;4.86;100.00
36190;BME280;22232;50.914;13.858;2023-12-14T04:51:47;96885.91;;;4.87;100.00
36190;BME280;22232;50.914;13.858;2023-12-14T04:54:15;96892.59;;;4.89;100.00
36190;BME280;22232;50.914;13.858;2023-12-14T04:56:46;96894.00;;;4.92;100.00
36190;BME280;22232;50.914;13.858;2023-12-14T04:59:14;96899.91;;;4.94;100.00
36190;BME280;22232;50.914;13.858;2023-12-14T05:01:42;96906.00;;;4.94;100.00
36190;BME280;22232;50.914;13.858;2023-12-14T05:04:10;96898.25;;;4.93;100.00
36190;BME280;22232;50.914;13.858;2023-12-14T05:06:38;96906.78;;;4.95;100.00
36190;BME280;22232;50.914;13.858;2023-12-14T05:09:06;96913.47;;;4.97;100.00
36190;BME280;22232;50.914;13.858;2023-12-14T05:11:34;96911.88;;;4.96;100.00
36190;BME280;22232;50.914;13.858;2023-12-14T05:14:02;96910.59;;;4.99;100.00
36190;BME280;22232;50.914;13.858;2023-12-14T05:16:31;96913.41;;;5.04;100.00
36190;BME280;22232;50.914;13.858;2023-12-14T05:18:59;96926.88;;;5.02;100.00
36190;BME280;22232;50.914;13.858;2023-12-14T05:21:27;96932.78;;;4.98;100.00
36190;BME280;22232;50.914;13.858;2023-12-14T05:23:55;96934.41;;;4.99;100.00
36190;BME280;22232;50.914;13.858;2023-12-14T05:26:23;96931.75;;;4.99;100.00
36190;BME280;22232;50.914;13.858;2023-12-14T05:28:51;96935.44;;;4.98;100.00
36190;BME280;22232;50.914;13.858;2023-12-14T05:31:19;96941.75;;;4.97;100.00
36190;BME280;22232;50.914;13.858;2023-12-14T05:33:47;96948.63;;;4.98;100.00
36190;BME280;22232;50.914;13.858;2023-12-14T05:36:15;96952.31;;;4.97;100.00
36190;BME280;22232;50.914;13.858;2023-12-14T05:38:44;96967.38;;;4.96;100.00
36190;BME280;22232;50.914;13.858;2023-12-14T05:41:11;96971.81;;;4.96;100.00
36190;BME280;22232;50.914;13.858;2023-12-14T05:43:40;96978.75;;;4.97;100.00
36190;BME280;22232;50.914;13.858;2023-12-14T05:46:08;96977.72;;;4.98;100.00
36190;BME280;22232;50.914;13.858;2023-12-14T05:48:37;96981.97;;;4.99;100.00
36190;BME280;22232;50.914;13.858;2023-12-14T05:51:05;96987.25;;;4.99;100.00
36190;BME280;22232;50.914;13.858;2023-12-14T05:53:33;96988.88;;;5.00;100.00
36190;BME280;22232;50.914;13.858;2023-12-14T05:56:07;96999.66;;;4.98;100.00
36190;BME280;22232;50.914;13.858;2023-12-14T05:58:35;96998.66;;;4.99;100.00
36190;BME280;22232;50.914;13.858;2023-12-14T06:01:03;97007.16;;;5.01;100.00
36190;BME280;22232;50.914;13.858;2023-12-14T06:03:31;97011.44;;;5.02;100.00
36190;BME280;22232;50.914;13.858;2023-12-14T06:05:59;97012.25;;;5.03;100.00
36190;BME280;22232;50.914;13.858;2023-12-14T06:08:27;97016.72;;;5.02;100.00
36190;BME280;22232;50.914;13.858;2023-12-14T06:10:55;97012.66;;;5.00;100.00
36190;BME280;22232;50.914;13.858;2023-12-14T06:13:25;97018.53;;;5.02;100.00
36190;BME280;22232;50.914;13.858;2023-12-14T06:15:53;97019.56;;;5.01;100.00
36190;BME280;22232;50.914;13.858;2023-12-14T06:18:21;97022.81;;;5.03;100.00
36190;BME280;22232;50.914;13.858;2023-12-14T06:20:49;97035.66;;;4.99;100.00
36190;BME280;22232;50.914;13.858;2023-12-14T06:23:17;97031.16;;;5.00;100.00
36190;BME280;22232;50.914;13.858;2023-12-14T06:25:45;97034.66;;;4.94;100.00
36190;BME280;22232;50.914;13.858;2023-12-14T06:28:13;97044.19;;;4.95;100.00
36190;BME280;22232;50.914;13.858;2023-12-14T06:30:41;97041.97;;;4.92;100.00
36190;BME280;22232;50.914;13.858;2023-12-14T06:33:09;97047.66;;;4.95;100.00
36190;BME280;22232;50.914;13.858;2023-12-14T06:35:38;97051.53;;;4.93;100.00
36190;BME280;22232;50.914;13.858;2023-12-14T06:38:06;97056.22;;;4.91;100.00
36190;BME280;22232;50.914;13.858;2023-12-14T06:40:35;97068.41;;;4.92;100.00
36190;BME280;22232;50.914;13.858;2023-12-14T06:43:04;97069.06;;;4.87;100.00
36190;BME280;22232;50.914;13.858;2023-12-14T06:45:33;97071.47;;;4.89;100.00
36190;BME280;22232;50.914;13.858;2023-12-14T06:48:01;97077.19;;;4.86;100.00
36190;BME280;22232;50.914;13.858;2023-12-14T06:50:29;97088.69;;;4.98;100.00
36190;BME280;22232;50.914;13.858;2023-12-14T06:52:56;97086.66;;;5.00;100.00
36190;BME280;22232;50.914;13.858;2023-12-14T06:55:24;97086.28;;;4.96;100.00
36190;BME280;22232;50.914;13.858;2023-12-14T06:57:52;97097.91;;;4.89;100.00
36190;BME280;22232;50.914;13.858;2023-12-14T07:00:20;97107.84;;;4.87;100.00
36190;BME280;22232;50.914;13.858;2023-12-14T07:02:48;97106.59;;;4.96;100.00
36190;BME280;22232;50.914;13.858;2023-12-14T07:05:17;97109.66;;;4.93;100.00
36190;BME280;22232;50.914;13.858;2023-12-14T07:07:45;97112.28;;;4.93;100.00
36190;BME280;22232;50.914;13.858;2023-12-14T07:10:13;97116.41;;;4.89;100.00
36190;BME280;22232;50.914;13.858;2023-12-14T07:12:41;97119.41;;;4.92;100.00
36190;BME280;22232;50.914;13.858;2023-12-14T07:15:09;97122.47;;;4.89;100.00
36190;BME280;22232;50.914;13.858;2023-12-14T07:17:37;97123.28;;;4.90;100.00
36190;BME280;22232;50.914;13.858;2023-12-14T07:20:06;97129.00;;;4.87;100.00
36190;BME280;22232;50.914;13.858;2023-12-14T07:22:34;97133.47;;;4.86;100.00
36190;BME280;22232;50.914;13.858;2023-12-14T07:25:03;97139.00;;;4.85;100.00
36190;BME280;22232;50.914;13.858;2023-12-14T07:27:31;97151.59;;;4.82;100.00
36190;BME280;22232;50.914;13.858;2023-12-14T07:30:00;97154.03;;;4.84;100.00
36190;BME280;22232;50.914;13.858;2023-12-14T07:32:28;97161.97;;;4.84;100.00
36190;BME280;22232;50.914;13.858;2023-12-14T07:34:56;97170.06;;;4.82;100.00
36190;BME280;22232;50.914;13.858;2023-12-14T07:37:24;97170.31;;;4.81;100.00
36190;BME280;22232;50.914;13.858;2023-12-14T07:39:51;97175.59;;;4.81;100.00
36190;BME280;22232;50.914;13.858;2023-12-14T07:42:19;97178.03;;;4.76;100.00
36190;BME280;22232;50.914;13.858;2023-12-14T07:44:47;97184.97;;;4.70;100.00
36190;BME280;22232;50.914;13.858;2023-12-14T07:47:16;97181.91;;;4.73;100.00
36190;BME280;22232;50.914;13.858;2023-12-14T07:49:44;97189.38;;;4.83;100.00
36190;BME280;22232;50.914;13.858;2023-12-14T07:52:12;97195.88;;;4.80;100.00
36190;BME280;22232;50.914;13.858;2023-12-14T07:54:41;97204.03;;;4.79;100.00
36190;BME280;22232;50.914;13.858;2023-12-14T07:57:09;97209.94;;;4.74;100.00
36190;BME280;22232;50.914;13.858;2023-12-14T07:59:37;97214.66;;;4.66;100.00
36190;BME280;22232;50.914;13.858;2023-12-14T08:02:05;97211.19;;;4.58;100.00
36190;BME280;22232;50.914;13.858;2023-12-14T08:04:34;97221.16;;;4.56;100.00
36190;BME280;22232;50.914;13.858;2023-12-14T08:07:02;97217.69;;;4.56;100.00
36190;BME280;22232;50.914;13.858;2023-12-14T08:09:30;97221.97;;;4.50;100.00
36190;BME280;22232;50.914;13.858;2023-12-14T08:11:58;97219.16;;;4.52;100.00
36190;BME280;22232;50.914;13.858;2023-12-14T08:14:26;97225.25;;;4.46;100.00
36190;BME280;22232;50.914;13.858;2023-12-14T08:16:54;97235.41;;;4.42;100.00
36190;BME280;22232;50.914;13.858;2023-12-14T08:19:22;97243.75;;;4.39;100.00
36190;BME280;22232;50.914;13.858;2023-12-14T08:21:50;97240.09;;;4.40;100.00
36190;BME280;22232;50.914;13.858;2023-12-14T08:24:18;97251.06;;;4.37;100.00
36190;BME280;22232;50.914;13.858;2023-12-14T08:26:46;97257.13;;;4.37;100.00
36190;BME280;22232;50.914;13.858;2023-12-14T08:29:14;97259.19;;;4.35;100.00
36190;BME280;22232;50.914;13.858;2023-12-14T08:31:42;97270.56;;;4.36;100.00
36190;BME280;22232;50.914;13.858;2023-12-14T08:34:10;97268.09;;;4.34;100.00
36190;BME280;22232;50.914;13.858;2023-12-14T08:36:38;97275.22;;;4.34;100.00
36190;BME280;22232;50.914;13.858;2023-12-14T08:39:06;97282.13;;;4.35;100.00
36190;BME280;22232;50.914;13.858;2023-12-14T08:41:34;97281.31;;;4.34;100.00
36190;BME280;22232;50.914;13.858;2023-12-14T08:44:02;97287.00;;;4.31;100.00
36190;BME280;22232;50.914;13.858;2023-12-14T08:46:38;97290.25;;;4.33;100.00
36190;BME280;22232;50.914;13.858;2023-12-14T08:49:06;97291.28;;;4.32;100.00
36190;BME280;22232;50.914;13.858;2023-12-14T08:51:34;97298.38;;;4.32;100.00
36190;BME280;22232;50.914;13.858;2023-12-14T08:54:02;97305.47;;;4.31;100.00
36190;BME280;22232;50.914;13.858;2023-12-14T08:56:30;97316.25;;;4.36;100.00
36190;BME280;22232;50.914;13.858;2023-12-14T08:58:59;97320.09;;;4.34;100.00
36190;BME280;22232;50.914;13.858;2023-12-14T09:01:27;97310.97;;;4.43;100.00
36190;BME280;22232;50.914;13.858;2023-12-14T09:03:56;97322.97;;;4.39;100.00
36190;BME280;22232;50.914;13.858;2023-12-14T09:06:23;97329.22;;;4.38;100.00
36190;BME280;22232;50.914;13.858;2023-12-14T09:08:52;97332.09;;;4.36;100.00
36190;BME280;22232;50.914;13.858;2023-12-14T09:11:20;97334.50;;;4.31;100.00
36190;BME280;22232;50.914;13.858;2023-12-14T09:13:48;97338.19;;;4.30;100.00
36190;BME280;22232;50.914;13.858;2023-12-14T09:16:16;97346.72;;;4.32;100.00
36190;BME280;22232;50.914;13.858;2023-12-14T09:18:45;97351.56;;;4.29;100.00
36190;BME280;22232;50.914;13.858;2023-12-14T09:21:13;97351.56;;;4.29;100.00
36190;BME280;22232;50.914;13.858;2023-12-14T09:23:42;97350.97;;;4.27;100.00
36190;BME280;22232;50.914;13.858;2023-12-14T09:26:10;97352.41;;;4.29;100.00
36190;BME280;22232;50.914;13.858;2023-12-14T09:28:39;97355.22;;;4.28;100.00
36190;BME280;22232;50.914;13.858;2023-12-14T09:31:07;97353.81;;;4.25;100.00
36190;BME280;22232;50.914;13.858;2023-12-14T09:33:36;97356.03;;;4.22;100.00
36190;BME280;22232;50.914;13.858;2023-12-14T09:36:04;97364.56;;;4.24;100.00
36190;BME280;22232;50.914;13.858;2023-12-14T09:38:32;97370.84;;;4.23;100.00
36190;BME280;22232;50.914;13.858;2023-12-14T09:41:00;97369.44;;;4.20;100.00
36190;BME280;22232;50.914;13.858;2023-12-14T09:43:28;97375.31;;;4.16;100.00
36190;BME280;22232;50.914;13.858;2023-12-14T09:45:56;97372.06;;;4.13;100.00
36190;BME280;22232;50.914;13.858;2023-12-14T09:48:24;97387.31;;;4.18;100.00
36190;BME280;22232;50.914;13.858;2023-12-14T09:50:52;97393.78;;;4.09;100.00
36190;BME280;22232;50.914;13.858;2023-12-14T09:53:20;97393.78;;;4.09;100.00
36190;BME280;22232;50.914;13.858;2023-12-14T09:55:49;97397.88;;;4.18;100.00
36190;BME280;22232;50.914;13.858;2023-12-14T09:58:16;97399.28;;;4.14;100.00
36190;BME280;22232;50.914;13.858;2023-12-14T10:00:44;97405.56;;;4.13;100.00
36190;BME280;22232;50.914;13.858;2023-12-14T10:03:21;97409.00;;;4.13;100.00
36190;BME280;22232;50.914;13.858;2023-12-14T10:05:50;97410.03;;;4.12;100.00
36190;BME280;22232;50.914;13.858;2023-12-14T10:08:18;97415.31;;;4.19;100.00
36190;BME280;22232;50.914;13.858;2023-12-14T10:10:49;97421.00;;;4.23;100.00
36190;BME280;22232;50.914;13.858;2023-12-14T10:13:20;97416.13;;;4.13;100.00
36190;BME280;22232;50.914;13.858;2023-12-14T10:15:48;97423.44;;;4.11;100.00
36190;BME280;22232;50.914;13.858;2023-12-14T10:18:24;97420.16;;;4.09;100.00
36190;BME280;22232;50.914;13.858;2023-12-14T10:20:52;97423.84;;;4.08;100.00
36190;BME280;22232;50.914;13.858;2023-12-14T10:23:21;97431.91;;;4.00;100.00
36190;BME280;22232;50.914;13.858;2023-12-14T10:25:49;97432.72;;;4.00;100.00
36190;BME280;22232;50.914;13.858;2023-12-14T10:28:17;97435.78;;;4.04;100.00
36190;BME280;22232;50.914;13.858;2023-12-14T10:30:45;97436.19;;;4.07;100.00
36190;BME280;22232;50.914;13.858;2023-12-14T10:33:13;97436.97;;;4.01;100.00
36190;BME280;22232;50.914;13.858;2023-12-14T10:35:44;97440.47;;;4.02;100.00
36190;BME280;22232;50.914;13.858;2023-12-14T10:38:15;97441.06;;;4.04;100.00
36190;BME280;22232;50.914;13.858;2023-12-14T10:40:45;97447.13;;;4.04;100.00
36190;BME280;22232;50.914;13.858;2023-12-14T10:43:15;97446.97;;;4.06;100.00
36190;BME280;22232;50.914;13.858;2023-12-14T10:46:07;97446.75;;;4.07;100.00
36190;BME280;22232;50.914;13.858;2023-12-14T10:48:38;97454.47;;;4.09;100.00
36190;BME280;22232;50.914;13.858;2023-12-14T10:51:14;97454.88;;;4.06;100.00
36190;BME280;22232;50.914;13.858;2023-12-14T10:53:44;97462.97;;;4.04;100.00
36190;BME280;22232;50.914;13.858;2023-12-14T10:56:16;97458.50;;;3.98;100.00
36190;BME280;22232;50.914;13.858;2023-12-14T10:58:55;97465.81;;;3.96;100.00
36190;BME280;22232;50.914;13.858;2023-12-14T11:01:24;97471.09;;;3.96;100.00
36190;BME280;22232;50.914;13.858;2023-12-14T11:03:56;97472.06;;;3.95;100.00
36190;BME280;22232;50.914;13.858;2023-12-14T11:06:36;97480.59;;;3.90;100.00
36190;BME280;22232;50.914;13.858;2023-12-14T11:09:07;97482.44;;;3.97;100.00
36190;BME280;22232;50.914;13.858;2023-12-14T11:14:27;97488.16;;;4.07;100.00
36190;BME280;22232;50.914;13.858;2023-12-14T11:16:56;97492.25;;;4.09;100.00
36190;BME280;22232;50.914;13.858;2023-12-14T11:32:40;97513.09;;;3.98;100.00
36190;BME280;22232;50.914;13.858;2023-12-14T11:40:39;97514.91;;;3.90;100.00
36190;BME280;22232;50.914;13.858;2023-12-14T11:44:22;97514.41;;;3.80;100.00
36190;BME280;22232;50.914;13.858;2023-12-14T11:48:00;97517.06;;;3.80;100.00
36190;BME280;22232;50.914;13.858;2023-12-14T11:51:28;97515.81;;;3.76;100.00
36190;BME280;22232;50.914;13.858;2023-12-14T11:55:09;97510.38;;;3.78;100.00
36190;BME280;22232;50.914;13.858;2023-12-14T11:59:06;97521.13;;;3.83;100.00
36190;BME280;22232;50.914;13.858;2023-12-14T12:11:15;97534.13;;;3.84;100.00
36190;BME280;22232;50.914;13.858;2023-12-14T12:14:59;97530.47;;;3.85;100.00
36190;BME280;22232;50.914;13.858;2023-12-14T12:18:37;97529.91;;;3.90;100.00
36190;BME280;22232;50.914;13.858;2023-12-14T12:22:10;97530.31;;;3.87;100.00
36190;BME280;22232;50.914;13.858;2023-12-14T12:38:15;97546.06;;;3.80;100.00
36190;BME280;22232;50.914;13.858;2023-12-14T12:41:47;97555.00;;;3.79;100.00
36190;BME280;22232;50.914;13.858;2023-12-14T13:14:26;97600.91;;;3.57;100.00
36190;BME280;22232;50.914;13.858;2023-12-14T13:17:51;97605.84;;;3.38;100.00
36190;BME280;22232;50.914;13.858;2023-12-14T13:21:44;97611.22;;;3.30;100.00
36190;BME280;22232;50.914;13.858;2023-12-14T13:26:05;97619.69;;;3.26;100.00
36190;BME280;22232;50.914;13.858;2023-12-14T13:34:07;97636.44;;;3.39;100.00
36190;BME280;22232;50.914;13.858;2023-12-14T14:28:36;97750.25;;;3.07;100.00
36190;BME280;22232;50.914;13.858;2023-12-14T15:14:23;97812.13;;;2.66;100.00
36190;BME280;22232;50.914;13.858;2023-12-14T15:39:10;97856.69;;;2.30;100.00
36190;BME280;22232;50.914;13.858;2023-12-14T15:47:36;97878.09;;;2.27;100.00
36190;BME280;22232;50.914;13.858;2023-12-14T15:55:23;97885.69;;;2.22;100.00
36190;BME280;22232;50.914;13.858;2023-12-14T15:59:10;97886.53;;;2.22;100.00
36190;BME280;22232;50.914;13.858;2023-12-14T16:11:45;97907.53;;;2.08;100.00
36190;BME280;22232;50.914;13.858;2023-12-14T16:43:31;97966.25;;;2.00;100.00
36190;BME280;22232;50.914;13.858;2023-12-14T16:56:20;97978.94;;;1.96;100.00
36190;BME280;22232;50.914;13.858;2023-12-14T17:04:42;97994.03;;;2.02;100.00
36190;BME280;22232;50.914;13.858;2023-12-14T17:13:04;98012.31;;;1.96;100.00
36190;BME280;22232;50.914;13.858;2023-12-14T17:17:16;98019.03;;;1.98;100.00
36190;BME280;22232;50.914;13.858;2023-12-14T17:25:51;98032.09;;;1.83;100.00
36190;BME280;22232;50.914;13.858;2023-12-14T17:30:22;98046.72;;;1.86;100.00
36190;BME280;22232;50.914;13.858;2023-12-14T17:34:11;98050.16;;;1.87;100.00
36190;BME280;22232;50.914;13.858;2023-12-14T17:42:38;98066.41;;;1.90;100.00
36190;BME280;22232;50.914;13.858;2023-12-14T17:59:33;98092.56;;;1.83;100.00
36190;BME280;22232;50.914;13.858;2023-12-14T18:03:28;98088.28;;;1.82;100.00
36190;BME280;22232;50.914;13.858;2023-12-14T18:08:04;98105.88;;;1.82;100.00
36190;BME280;22232;50.914;13.858;2023-12-14T18:16:19;98110.19;;;1.75;100.00
36190;BME280;22232;50.914;13.858;2023-12-14T18:20:04;98113.63;;;1.75;100.00
36190;BME280;22232;50.914;13.858;2023-12-14T18:24:12;98131.03;;;1.76;100.00
36190;BME280;22232;50.914;13.858;2023-12-14T18:28:30;98135.66;;;1.74;100.00
